sensor_id;sensor_type;location;lat;lon;timestamp;temperature;humidity
26575;DHT22;67165;50.256;10.978;2024-03-06T00:02:23;7.60;98.00
26575;DHT22;67165;50.256;10.978;2024-03-06T00:04:49;7.60;98.00
26575;DHT22;67165;50.256;10.978;2024-03-06T00:07:15;7.60;98.00
26575;DHT22;67165;50.256;10.978;2024-03-06T00:09:41;7.60;98.00
26575;DHT22;67165;50.256;10.978;2024-03-06T00:12:07;7.70;98.00
26575;DHT22;67165;50.256;10.978;2024-03-06T00:14:33;7.70;98.00
26575;DHT22;67165;50.256;10.978;2024-03-06T00:17:02;7.70;98.00
26575;DHT22;67165;50.256;10.978;2024-03-06T00:19:30;7.70;98.00
26575;DHT22;67165;50.256;10.978;2024-03-06T00:21:56;7.70;98.00
26575;DHT22;67165;50.256;10.978;2024-03-06T00:24:22;7.70;98.00
26575;DHT22;67165;50.256;10.978;2024-03-06T00:26:48;7.70;98.00
26575;DHT22;67165;50.256;10.978;2024-03-06T00:29:14;7.60;98.00
26575;DHT22;67165;50.256;10.978;2024-03-06T00:31:44;7.60;98.00
26575;DHT22;67165;50.256;10.978;2024-03-06T00:34:13;7.70;98.00
26575;DHT22;67165;50.256;10.978;2024-03-06T00:36:45;7.60;98.00
26575;DHT22;67165;50.256;10.978;2024-03-06T00:39:11;7.70;98.00
26575;DHT22;67165;50.256;10.978;2024-03-06T00:41:39;7.70;98.00
26575;DHT22;67165;50.256;10.978;2024-03-06T00:44:05;7.70;98.00
26575;DHT22;67165;50.256;10.978;2024-03-06T00:46:31;7.60;98.00
26575;DHT22;67165;50.256;10.978;2024-03-06T00:48:57;7.60;98.00
26575;DHT22;67165;50.256;10.978;2024-03-06T00:51:23;7.60;98.00
26575;DHT22;67165;50.256;10.978;2024-03-06T00:53:49;7.60;98.00
26575;DHT22;67165;50.256;10.978;2024-03-06T00:56:14;7.60;98.00
26575;DHT22;67165;50.256;10.978;2024-03-06T00:58:40;7.50;98.00
26575;DHT22;67165;50.256;10.978;2024-03-06T01:01:06;7.50;98.00
26575;DHT22;67165;50.256;10.978;2024-03-06T01:03:32;7.60;98.00
26575;DHT22;67165;50.256;10.978;2024-03-06T01:05:57;7.60;98.00
26575;DHT22;67165;50.256;10.978;2024-03-06T01:08:23;7.60;98.00
26575;DHT22;67165;50.256;10.978;2024-03-06T01:10:53;7.50;98.00
26575;DHT22;67165;50.256;10.978;2024-03-06T01:13:19;7.50;98.00
26575;DHT22;67165;50.256;10.978;2024-03-06T01:15:45;7.50;98.00
26575;DHT22;67165;50.256;10.978;2024-03-06T01:18:11;7.50;98.00
26575;DHT22;67165;50.256;10.978;2024-03-06T01:20:37;7.50;98.00
26575;DHT22;67165;50.256;10.978;2024-03-06T01:23:03;7.50;98.00
26575;DHT22;67165;50.256;10.978;2024-03-06T01:25:29;7.50;98.00
26575;DHT22;67165;50.256;10.978;2024-03-06T01:27:55;7.50;98.00
26575;DHT22;67165;50.256;10.978;2024-03-06T01:30:21;7.50;98.00
26575;DHT22;67165;50.256;10.978;2024-03-06T01:32:46;7.40;98.00
26575;DHT22;67165;50.256;10.978;2024-03-06T01:35:12;7.40;98.00
26575;DHT22;67165;50.256;10.978;2024-03-06T01:37:38;7.40;98.00
26575;DHT22;67165;50.256;10.978;2024-03-06T01:40:04;7.40;98.00
26575;DHT22;67165;50.256;10.978;2024-03-06T01:42:31;7.40;98.00
26575;DHT22;67165;50.256;10.978;2024-03-06T01:44:57;7.40;98.00
26575;DHT22;67165;50.256;10.978;2024-03-06T01:47:22;7.40;98.00
26575;DHT22;67165;50.256;10.978;2024-03-06T01:49:49;7.40;98.00
26575;DHT22;67165;50.256;10.978;2024-03-06T01:52:16;7.30;98.00
26575;DHT22;67165;50.256;10.978;2024-03-06T01:54:44;7.30;98.00
26575;DHT22;67165;50.256;10.978;2024-03-06T01:57:11;7.30;98.00
26575;DHT22;67165;50.256;10.978;2024-03-06T01:59:40;7.20;98.00
26575;DHT22;67165;50.256;10.978;2024-03-06T02:02:07;7.20;98.00
26575;DHT22;67165;50.256;10.978;2024-03-06T02:04:34;7.10;98.00
26575;DHT22;67165;50.256;10.978;2024-03-06T02:07:00;7.10;98.00
26575;DHT22;67165;50.256;10.978;2024-03-06T02:09:26;7.10;98.00
26575;DHT22;67165;50.256;10.978;2024-03-06T02:11:52;7.10;98.00
26575;DHT22;67165;50.256;10.978;2024-03-06T02:14:17;7.10;98.00
26575;DHT22;67165;50.256;10.978;2024-03-06T02:16:43;7.10;98.00
26575;DHT22;67165;50.256;10.978;2024-03-06T02:19:09;7.10;98.00
26575;DHT22;67165;50.256;10.978;2024-03-06T02:21:35;7.10;98.00
26575;DHT22;67165;50.256;10.978;2024-03-06T02:24:01;7.10;98.00
26575;DHT22;67165;50.256;10.978;2024-03-06T02:26:26;7.10;98.00
26575;DHT22;67165;50.256;10.978;2024-03-06T02:28:54;7.10;98.00
26575;DHT22;67165;50.256;10.978;2024-03-06T02:31:20;7.20;98.00
26575;DHT22;67165;50.256;10.978;2024-03-06T02:33:47;7.20;98.00
26575;DHT22;67165;50.256;10.978;2024-03-06T02:36:14;7.20;98.00
26575;DHT22;67165;50.256;10.978;2024-03-06T02:38:40;7.10;98.00
26575;DHT22;67165;50.256;10.978;2024-03-06T02:41:06;7.20;98.00
26575;DHT22;67165;50.256;10.978;2024-03-06T02:43:35;7.10;98.00
26575;DHT22;67165;50.256;10.978;2024-03-06T02:46:02;7.20;98.00
26575;DHT22;67165;50.256;10.978;2024-03-06T02:48:28;7.20;98.00
26575;DHT22;67165;50.256;10.978;2024-03-06T02:50:54;7.20;98.00
26575;DHT22;67165;50.256;10.978;2024-03-06T02:53:20;7.10;98.00
26575;DHT22;67165;50.256;10.978;2024-03-06T02:55:46;7.10;98.00
26575;DHT22;67165;50.256;10.978;2024-03-06T02:58:11;7.10;98.00
26575;DHT22;67165;50.256;10.978;2024-03-06T03:00:39;7.10;98.00
26575;DHT22;67165;50.256;10.978;2024-03-06T03:03:06;7.10;98.00
26575;DHT22;67165;50.256;10.978;2024-03-06T03:05:32;7.10;98.00
26575;DHT22;67165;50.256;10.978;2024-03-06T03:07:59;7.10;98.00
26575;DHT22;67165;50.256;10.978;2024-03-06T03:10:25;7.20;98.00
26575;DHT22;67165;50.256;10.978;2024-03-06T03:12:51;7.20;98.00
26575;DHT22;67165;50.256;10.978;2024-03-06T03:15:17;7.20;98.00
26575;DHT22;67165;50.256;10.978;2024-03-06T03:17:43;7.20;98.00
26575;DHT22;67165;50.256;10.978;2024-03-06T03:20:09;7.20;98.00
26575;DHT22;67165;50.256;10.978;2024-03-06T03:22:39;7.30;98.00
26575;DHT22;67165;50.256;10.978;2024-03-06T03:25:11;7.20;98.00
26575;DHT22;67165;50.256;10.978;2024-03-06T03:27:40;7.20;98.00
26575;DHT22;67165;50.256;10.978;2024-03-06T03:30:10;7.20;98.00
26575;DHT22;67165;50.256;10.978;2024-03-06T03:32:37;7.20;98.00
26575;DHT22;67165;50.256;10.978;2024-03-06T03:35:06;7.20;98.00
26575;DHT22;67165;50.256;10.978;2024-03-06T03:37:32;7.20;98.00
26575;DHT22;67165;50.256;10.978;2024-03-06T03:39:58;7.20;98.00
26575;DHT22;67165;50.256;10.978;2024-03-06T03:42:24;7.20;98.00
26575;DHT22;67165;50.256;10.978;2024-03-06T03:44:50;7.20;98.00
26575;DHT22;67165;50.256;10.978;2024-03-06T03:47:15;7.20;98.00
26575;DHT22;67165;50.256;10.978;2024-03-06T03:49:41;7.20;98.00
26575;DHT22;67165;50.256;10.978;2024-03-06T03:52:08;7.20;98.00
26575;DHT22;67165;50.256;10.978;2024-03-06T03:54:34;7.30;98.00
26575;DHT22;67165;50.256;10.978;2024-03-06T03:57:00;7.30;98.00
26575;DHT22;67165;50.256;10.978;2024-03-06T03:59:26;7.30;98.00
26575;DHT22;67165;50.256;10.978;2024-03-06T04:01:52;7.30;98.00
26575;DHT22;67165;50.256;10.978;2024-03-06T04:04:18;7.30;98.00
26575;DHT22;67165;50.256;10.978;2024-03-06T04:06:43;7.30;98.00
26575;DHT22;67165;50.256;10.978;2024-03-06T04:09:09;7.30;98.00
26575;DHT22;67165;50.256;10.978;2024-03-06T04:11:36;7.30;98.00
26575;DHT22;67165;50.256;10.978;2024-03-06T04:14:04;7.20;98.00
26575;DHT22;67165;50.256;10.978;2024-03-06T04:16:29;7.20;98.00
26575;DHT22;67165;50.256;10.978;2024-03-06T04:18:55;7.20;98.00
26575;DHT22;67165;50.256;10.978;2024-03-06T04:21:21;7.20;98.00
26575;DHT22;67165;50.256;10.978;2024-03-06T04:23:48;7.20;98.00
26575;DHT22;67165;50.256;10.978;2024-03-06T04:26:14;7.10;98.00
26575;DHT22;67165;50.256;10.978;2024-03-06T04:28:40;7.10;98.00
26575;DHT22;67165;50.256;10.978;2024-03-06T04:31:06;7.00;98.00
26575;DHT22;67165;50.256;10.978;2024-03-06T04:33:32;7.00;98.00
26575;DHT22;67165;50.256;10.978;2024-03-06T04:35:58;7.00;98.00
26575;DHT22;67165;50.256;10.978;2024-03-06T04:38:23;7.10;98.00
26575;DHT22;67165;50.256;10.978;2024-03-06T04:40:49;7.10;98.00
26575;DHT22;67165;50.256;10.978;2024-03-06T04:43:15;7.10;98.00
26575;DHT22;67165;50.256;10.978;2024-03-06T04:45:41;7.00;98.00
26575;DHT22;67165;50.256;10.978;2024-03-06T04:48:07;7.00;98.00
26575;DHT22;67165;50.256;10.978;2024-03-06T04:50:33;7.00;98.00
26575;DHT22;67165;50.256;10.978;2024-03-06T04:52:59;7.00;98.00
26575;DHT22;67165;50.256;10.978;2024-03-06T04:55:25;6.90;98.00
26575;DHT22;67165;50.256;10.978;2024-03-06T04:57:52;6.90;98.00
26575;DHT22;67165;50.256;10.978;2024-03-06T05:00:18;6.90;98.00
26575;DHT22;67165;50.256;10.978;2024-03-06T05:02:44;6.90;98.00
26575;DHT22;67165;50.256;10.978;2024-03-06T05:05:10;6.90;98.00
26575;DHT22;67165;50.256;10.978;2024-03-06T05:07:36;6.90;98.00
26575;DHT22;67165;50.256;10.978;2024-03-06T05:10:02;6.90;98.00
26575;DHT22;67165;50.256;10.978;2024-03-06T05:12:28;6.90;98.00
26575;DHT22;67165;50.256;10.978;2024-03-06T05:14:55;6.90;98.00
26575;DHT22;67165;50.256;10.978;2024-03-06T05:17:21;6.90;98.00
26575;DHT22;67165;50.256;10.978;2024-03-06T05:19:47;6.90;98.00
26575;DHT22;67165;50.256;10.978;2024-03-06T05:22:15;6.80;98.00
26575;DHT22;67165;50.256;10.978;2024-03-06T05:24:44;6.80;98.00
26575;DHT22;67165;50.256;10.978;2024-03-06T05:27:10;6.80;98.00
26575;DHT22;67165;50.256;10.978;2024-03-06T05:29:38;6.80;98.00
26575;DHT22;67165;50.256;10.978;2024-03-06T05:32:05;6.80;98.00
26575;DHT22;67165;50.256;10.978;2024-03-06T05:34:33;6.70;98.00
26575;DHT22;67165;50.256;10.978;2024-03-06T05:36:59;6.70;98.00
26575;DHT22;67165;50.256;10.978;2024-03-06T05:39:26;6.70;98.00
26575;DHT22;67165;50.256;10.978;2024-03-06T05:41:54;6.70;98.00
26575;DHT22;67165;50.256;10.978;2024-03-06T05:44:20;6.80;98.00
26575;DHT22;67165;50.256;10.978;2024-03-06T05:46:47;6.70;98.00
26575;DHT22;67165;50.256;10.978;2024-03-06T05:49:13;6.70;98.00
26575;DHT22;67165;50.256;10.978;2024-03-06T05:51:39;6.60;98.00
26575;DHT22;67165;50.256;10.978;2024-03-06T05:54:05;6.60;98.00
26575;DHT22;67165;50.256;10.978;2024-03-06T05:56:34;6.70;98.00
26575;DHT22;67165;50.256;10.978;2024-03-06T05:59:00;6.60;98.00
26575;DHT22;67165;50.256;10.978;2024-03-06T06:01:30;6.70;98.00
26575;DHT22;67165;50.256;10.978;2024-03-06T06:03:56;6.70;98.00
26575;DHT22;67165;50.256;10.978;2024-03-06T06:06:22;6.70;98.00
26575;DHT22;67165;50.256;10.978;2024-03-06T06:08:48;6.70;98.00
26575;DHT22;67165;50.256;10.978;2024-03-06T06:11:14;6.60;98.00
26575;DHT22;67165;50.256;10.978;2024-03-06T06:13:40;6.60;98.00
26575;DHT22;67165;50.256;10.978;2024-03-06T06:16:06;6.70;98.00
26575;DHT22;67165;50.256;10.978;2024-03-06T06:18:32;6.70;98.00
26575;DHT22;67165;50.256;10.978;2024-03-06T06:20:58;6.70;98.00
26575;DHT22;67165;50.256;10.978;2024-03-06T06:23:25;6.70;98.00
26575;DHT22;67165;50.256;10.978;2024-03-06T06:25:51;6.60;98.00
26575;DHT22;67165;50.256;10.978;2024-03-06T06:28:17;6.70;98.00
26575;DHT22;67165;50.256;10.978;2024-03-06T06:30:43;6.70;98.00
26575;DHT22;67165;50.256;10.978;2024-03-06T06:33:08;6.70;98.00
26575;DHT22;67165;50.256;10.978;2024-03-06T06:35:35;6.80;98.00
26575;DHT22;67165;50.256;10.978;2024-03-06T06:38:01;6.80;98.00
26575;DHT22;67165;50.256;10.978;2024-03-06T06:40:27;6.80;98.00
26575;DHT22;67165;50.256;10.978;2024-03-06T06:42:56;6.80;98.00
26575;DHT22;67165;50.256;10.978;2024-03-06T06:45:22;6.80;98.00
26575;DHT22;67165;50.256;10.978;2024-03-06T06:47:49;6.90;98.00
26575;DHT22;67165;50.256;10.978;2024-03-06T06:50:15;7.00;98.00
26575;DHT22;67165;50.256;10.978;2024-03-06T06:52:41;6.90;98.00
26575;DHT22;67165;50.256;10.978;2024-03-06T06:55:08;6.90;98.00
26575;DHT22;67165;50.256;10.978;2024-03-06T06:57:37;7.00;98.00
26575;DHT22;67165;50.256;10.978;2024-03-06T07:00:04;7.00;98.00
26575;DHT22;67165;50.256;10.978;2024-03-06T07:02:45;7.10;98.00
26575;DHT22;67165;50.256;10.978;2024-03-06T07:05:11;7.10;98.00
26575;DHT22;67165;50.256;10.978;2024-03-06T07:07:37;7.10;98.00
26575;DHT22;67165;50.256;10.978;2024-03-06T07:10:04;7.10;98.00
26575;DHT22;67165;50.256;10.978;2024-03-06T07:12:30;7.20;98.00
26575;DHT22;67165;50.256;10.978;2024-03-06T07:14:56;7.20;98.00
26575;DHT22;67165;50.256;10.978;2024-03-06T07:17:22;7.10;98.00
26575;DHT22;67165;50.256;10.978;2024-03-06T07:19:48;7.10;98.00
26575;DHT22;67165;50.256;10.978;2024-03-06T07:22:14;7.20;98.00
26575;DHT22;67165;50.256;10.978;2024-03-06T07:24:40;7.20;98.00
26575;DHT22;67165;50.256;10.978;2024-03-06T07:27:07;7.20;98.00
26575;DHT22;67165;50.256;10.978;2024-03-06T07:29:34;7.10;98.00
26575;DHT22;67165;50.256;10.978;2024-03-06T07:32:01;7.20;98.00
26575;DHT22;67165;50.256;10.978;2024-03-06T07:34:26;7.20;98.00
26575;DHT22;67165;50.256;10.978;2024-03-06T07:36:52;7.20;98.00
26575;DHT22;67165;50.256;10.978;2024-03-06T07:39:21;7.30;98.00
26575;DHT22;67165;50.256;10.978;2024-03-06T07:41:47;7.30;98.00
26575;DHT22;67165;50.256;10.978;2024-03-06T07:44:13;7.30;98.00
26575;DHT22;67165;50.256;10.978;2024-03-06T07:46:39;7.20;98.00
26575;DHT22;67165;50.256;10.978;2024-03-06T07:49:05;7.20;98.00
26575;DHT22;67165;50.256;10.978;2024-03-06T07:51:34;7.30;98.00
26575;DHT22;67165;50.256;10.978;2024-03-06T07:54:01;7.50;98.00
26575;DHT22;67165;50.256;10.978;2024-03-06T07:56:27;7.60;98.00
26575;DHT22;67165;50.256;10.978;2024-03-06T07:58:54;7.80;98.00
26575;DHT22;67165;50.256;10.978;2024-03-06T08:01:20;7.80;98.00
26575;DHT22;67165;50.256;10.978;2024-03-06T08:03:47;8.00;98.00
26575;DHT22;67165;50.256;10.978;2024-03-06T08:06:13;8.10;98.00
26575;DHT22;67165;50.256;10.978;2024-03-06T08:08:42;8.20;98.00
26575;DHT22;67165;50.256;10.978;2024-03-06T08:11:10;8.30;98.00
26575;DHT22;67165;50.256;10.978;2024-03-06T08:13:37;8.00;98.00
26575;DHT22;67165;50.256;10.978;2024-03-06T08:16:03;8.00;98.00
26575;DHT22;67165;50.256;10.978;2024-03-06T08:18:29;8.00;98.00
26575;DHT22;67165;50.256;10.978;2024-03-06T08:20:56;8.00;98.00
26575;DHT22;67165;50.256;10.978;2024-03-06T08:23:22;7.90;98.00
26575;DHT22;67165;50.256;10.978;2024-03-06T08:25:49;8.00;98.00
26575;DHT22;67165;50.256;10.978;2024-03-06T08:28:15;8.00;98.00
26575;DHT22;67165;50.256;10.978;2024-03-06T08:30:41;8.00;98.00
26575;DHT22;67165;50.256;10.978;2024-03-06T08:33:07;7.80;98.00
26575;DHT22;67165;50.256;10.978;2024-03-06T08:35:32;7.80;98.00
26575;DHT22;67165;50.256;10.978;2024-03-06T08:38:00;7.80;98.00
26575;DHT22;67165;50.256;10.978;2024-03-06T08:40:25;7.90;98.00
26575;DHT22;67165;50.256;10.978;2024-03-06T08:42:53;8.00;98.00
26575;DHT22;67165;50.256;10.978;2024-03-06T08:45:19;8.00;98.00
26575;DHT22;67165;50.256;10.978;2024-03-06T08:47:46;8.10;98.00
26575;DHT22;67165;50.256;10.978;2024-03-06T08:50:12;8.10;98.00
26575;DHT22;67165;50.256;10.978;2024-03-06T08:52:38;8.10;98.00
26575;DHT22;67165;50.256;10.978;2024-03-06T08:55:05;8.20;98.00
26575;DHT22;67165;50.256;10.978;2024-03-06T08:57:37;8.20;98.00
26575;DHT22;67165;50.256;10.978;2024-03-06T09:00:04;8.30;98.00
26575;DHT22;67165;50.256;10.978;2024-03-06T09:02:33;8.40;98.00
26575;DHT22;67165;50.256;10.978;2024-03-06T09:04:58;8.40;98.00
26575;DHT22;67165;50.256;10.978;2024-03-06T09:07:24;8.50;98.00
26575;DHT22;67165;50.256;10.978;2024-03-06T09:09:50;8.40;98.00
26575;DHT22;67165;50.256;10.978;2024-03-06T09:12:19;8.50;98.00
26575;DHT22;67165;50.256;10.978;2024-03-06T09:14:45;8.60;98.00
26575;DHT22;67165;50.256;10.978;2024-03-06T09:17:11;8.70;98.00
26575;DHT22;67165;50.256;10.978;2024-03-06T09:19:40;8.80;98.00
26575;DHT22;67165;50.256;10.978;2024-03-06T09:22:07;8.80;98.00
26575;DHT22;67165;50.256;10.978;2024-03-06T09:24:33;8.80;98.00
26575;DHT22;67165;50.256;10.978;2024-03-06T09:27:01;8.80;98.00
26575;DHT22;67165;50.256;10.978;2024-03-06T09:29:27;8.90;98.00
26575;DHT22;67165;50.256;10.978;2024-03-06T09:31:52;9.00;98.00
26575;DHT22;67165;50.256;10.978;2024-03-06T09:34:18;9.00;98.00
26575;DHT22;67165;50.256;10.978;2024-03-06T09:36:49;9.00;98.00
26575;DHT22;67165;50.256;10.978;2024-03-06T09:39:19;9.00;98.00
26575;DHT22;67165;50.256;10.978;2024-03-06T09:41:51;9.10;98.00
26575;DHT22;67165;50.256;10.978;2024-03-06T09:44:18;9.30;98.00
26575;DHT22;67165;50.256;10.978;2024-03-06T09:46:45;9.40;98.00
26575;DHT22;67165;50.256;10.978;2024-03-06T09:49:13;9.40;98.00
26575;DHT22;67165;50.256;10.978;2024-03-06T09:51:43;9.30;98.00
26575;DHT22;67165;50.256;10.978;2024-03-06T09:54:11;9.20;98.00
26575;DHT22;67165;50.256;10.978;2024-03-06T09:56:38;9.10;98.00
26575;DHT22;67165;50.256;10.978;2024-03-06T09:59:04;9.10;98.00
26575;DHT22;67165;50.256;10.978;2024-03-06T10:01:31;9.10;98.00
26575;DHT22;67165;50.256;10.978;2024-03-06T10:03:58;9.00;98.00
26575;DHT22;67165;50.256;10.978;2024-03-06T10:06:24;9.10;98.00
26575;DHT22;67165;50.256;10.978;2024-03-06T10:08:50;9.20;98.00
26575;DHT22;67165;50.256;10.978;2024-03-06T10:11:17;9.40;98.00
26575;DHT22;67165;50.256;10.978;2024-03-06T10:13:43;9.40;98.00
26575;DHT22;67165;50.256;10.978;2024-03-06T10:16:09;9.60;98.00
26575;DHT22;67165;50.256;10.978;2024-03-06T10:18:37;9.80;98.00
26575;DHT22;67165;50.256;10.978;2024-03-06T10:21:04;9.80;98.00
26575;DHT22;67165;50.256;10.978;2024-03-06T10:23:31;9.90;98.00
26575;DHT22;67165;50.256;10.978;2024-03-06T10:25:57;9.80;98.00
26575;DHT22;67165;50.256;10.978;2024-03-06T10:28:23;9.90;98.00
26575;DHT22;67165;50.256;10.978;2024-03-06T10:30:50;9.80;98.00
26575;DHT22;67165;50.256;10.978;2024-03-06T10:33:18;9.90;98.00
26575;DHT22;67165;50.256;10.978;2024-03-06T10:35:46;9.90;98.00
26575;DHT22;67165;50.256;10.978;2024-03-06T10:38:14;10.10;98.00
26575;DHT22;67165;50.256;10.978;2024-03-06T10:40:41;10.20;98.00
26575;DHT22;67165;50.256;10.978;2024-03-06T10:43:08;10.20;98.00
26575;DHT22;67165;50.256;10.978;2024-03-06T10:45:50;10.30;98.00
26575;DHT22;67165;50.256;10.978;2024-03-06T10:48:17;10.00;98.00
26575;DHT22;67165;50.256;10.978;2024-03-06T10:50:45;9.80;98.00
26575;DHT22;67165;50.256;10.978;2024-03-06T10:53:12;9.70;98.00
26575;DHT22;67165;50.256;10.978;2024-03-06T10:55:39;9.70;98.00
26575;DHT22;67165;50.256;10.978;2024-03-06T10:58:06;9.70;98.00
26575;DHT22;67165;50.256;10.978;2024-03-06T11:03:05;9.50;98.00
26575;DHT22;67165;50.256;10.978;2024-03-06T11:05:38;9.20;98.00
26575;DHT22;67165;50.256;10.978;2024-03-06T11:08:07;9.30;98.00
26575;DHT22;67165;50.256;10.978;2024-03-06T11:10:35;9.30;98.00
26575;DHT22;67165;50.256;10.978;2024-03-06T11:13:02;9.40;98.00
26575;DHT22;67165;50.256;10.978;2024-03-06T11:15:30;9.00;98.00
26575;DHT22;67165;50.256;10.978;2024-03-06T11:17:57;8.90;98.00
26575;DHT22;67165;50.256;10.978;2024-03-06T11:20:23;8.90;98.00
26575;DHT22;67165;50.256;10.978;2024-03-06T11:28:25;9.10;98.00
26575;DHT22;67165;50.256;10.978;2024-03-06T11:31:13;9.10;98.00
26575;DHT22;67165;50.256;10.978;2024-03-06T11:33:45;9.20;98.00
26575;DHT22;67165;50.256;10.978;2024-03-06T11:39:06;9.20;98.00
26575;DHT22;67165;50.256;10.978;2024-03-06T11:44:22;9.30;98.00
26575;DHT22;67165;50.256;10.978;2024-03-06T11:46:58;9.30;98.00
26575;DHT22;67165;50.256;10.978;2024-03-06T11:49:26;9.30;98.00
26575;DHT22;67165;50.256;10.978;2024-03-06T11:52:00;9.40;98.00
26575;DHT22;67165;50.256;10.978;2024-03-06T11:54:26;9.40;98.00
26575;DHT22;67165;50.256;10.978;2024-03-06T11:56:54;9.40;98.00
26575;DHT22;67165;50.256;10.978;2024-03-06T11:59:24;9.50;98.00
26575;DHT22;67165;50.256;10.978;2024-03-06T12:02:02;9.60;98.00
26575;DHT22;67165;50.256;10.978;2024-03-06T12:04:34;9.70;98.00
26575;DHT22;67165;50.256;10.978;2024-03-06T12:07:01;9.60;98.00
26575;DHT22;67165;50.256;10.978;2024-03-06T12:09:35;9.70;98.00
26575;DHT22;67165;50.256;10.978;2024-03-06T12:12:01;9.60;98.00
26575;DHT22;67165;50.256;10.978;2024-03-06T12:14:27;9.60;98.00
26575;DHT22;67165;50.256;10.978;2024-03-06T12:16:57;9.60;98.00
26575;DHT22;67165;50.256;10.978;2024-03-06T12:19:26;9.50;98.00
26575;DHT22;67165;50.256;10.978;2024-03-06T12:21:53;9.60;98.00
26575;DHT22;67165;50.256;10.978;2024-03-06T12:24:19;9.80;98.00
26575;DHT22;67165;50.256;10.978;2024-03-06T12:26:46;9.90;98.00
26575;DHT22;67165;50.256;10.978;2024-03-06T12:29:17;10.00;98.00
26575;DHT22;67165;50.256;10.978;2024-03-06T12:31:44;10.00;98.00
26575;DHT22;67165;50.256;10.978;2024-03-06T12:34:14;10.10;98.00
26575;DHT22;67165;50.256;10.978;2024-03-06T12:36:42;10.10;98.00
26575;DHT22;67165;50.256;10.978;2024-03-06T12:39:08;10.10;98.00
26575;DHT22;67165;50.256;10.978;2024-03-06T12:41:41;10.20;98.00
26575;DHT22;67165;50.256;10.978;2024-03-06T12:44:07;10.20;98.00
26575;DHT22;67165;50.256;10.978;2024-03-06T12:46:32;10.10;98.00
26575;DHT22;67165;50.256;10.978;2024-03-06T12:48:58;10.20;98.00
26575;DHT22;67165;50.256;10.978;2024-03-06T12:51:24;10.20;98.00
26575;DHT22;67165;50.256;10.978;2024-03-06T12:53:50;10.30;98.00
26575;DHT22;67165;50.256;10.978;2024-03-06T12:56:17;10.40;98.00
26575;DHT22;67165;50.256;10.978;2024-03-06T12:58:43;10.30;98.00
26575;DHT22;67165;50.256;10.978;2024-03-06T13:01:09;10.30;98.00
26575;DHT22;67165;50.256;10.978;2024-03-06T13:03:36;10.50;98.00
26575;DHT22;67165;50.256;10.978;2024-03-06T13:06:02;10.50;98.00
26575;DHT22;67165;50.256;10.978;2024-03-06T13:08:29;10.40;98.00
26575;DHT22;67165;50.256;10.978;2024-03-06T13:10:55;10.50;98.00
26575;DHT22;67165;50.256;10.978;2024-03-06T13:13:22;10.50;98.00
26575;DHT22;67165;50.256;10.978;2024-03-06T13:15:52;10.60;98.00
26575;DHT22;67165;50.256;10.978;2024-03-06T13:18:18;10.60;98.00
26575;DHT22;67165;50.256;10.978;2024-03-06T13:20:44;10.70;98.00
26575;DHT22;67165;50.256;10.978;2024-03-06T13:23:11;10.80;98.00
26575;DHT22;67165;50.256;10.978;2024-03-06T13:25:36;10.80;98.00
26575;DHT22;67165;50.256;10.978;2024-03-06T13:28:03;10.70;98.00
26575;DHT22;67165;50.256;10.978;2024-03-06T13:30:29;10.70;98.00
26575;DHT22;67165;50.256;10.978;2024-03-06T13:32:55;10.90;98.00
26575;DHT22;67165;50.256;10.978;2024-03-06T13:35:21;10.80;98.00
26575;DHT22;67165;50.256;10.978;2024-03-06T13:37:47;10.60;98.00
26575;DHT22;67165;50.256;10.978;2024-03-06T13:40:14;10.60;98.00
26575;DHT22;67165;50.256;10.978;2024-03-06T13:42:40;10.70;98.00
26575;DHT22;67165;50.256;10.978;2024-03-06T13:45:07;10.50;98.00
26575;DHT22;67165;50.256;10.978;2024-03-06T13:47:40;10.40;98.00
26575;DHT22;67165;50.256;10.978;2024-03-06T13:50:09;10.30;98.00
26575;DHT22;67165;50.256;10.978;2024-03-06T13:52:35;10.20;98.00
26575;DHT22;67165;50.256;10.978;2024-03-06T13:55:02;10.10;98.00
26575;DHT22;67165;50.256;10.978;2024-03-06T13:57:30;10.00;98.00
26575;DHT22;67165;50.256;10.978;2024-03-06T13:59:59;10.00;98.00
26575;DHT22;67165;50.256;10.978;2024-03-06T14:02:26;10.20;98.00
26575;DHT22;67165;50.256;10.978;2024-03-06T14:04:51;10.10;98.00
26575;DHT22;67165;50.256;10.978;2024-03-06T14:07:17;10.10;98.00
26575;DHT22;67165;50.256;10.978;2024-03-06T14:09:43;10.10;98.00
26575;DHT22;67165;50.256;10.978;2024-03-06T14:12:09;10.20;98.00
26575;DHT22;67165;50.256;10.978;2024-03-06T14:14:35;10.30;98.00
26575;DHT22;67165;50.256;10.978;2024-03-06T14:17:00;10.30;98.00
26575;DHT22;67165;50.256;10.978;2024-03-06T14:19:26;10.20;98.00
26575;DHT22;67165;50.256;10.978;2024-03-06T14:21:52;10.30;98.00
26575;DHT22;67165;50.256;10.978;2024-03-06T14:24:18;10.30;98.00
26575;DHT22;67165;50.256;10.978;2024-03-06T14:26:46;10.40;98.00
26575;DHT22;67165;50.256;10.978;2024-03-06T14:29:13;10.40;98.00
26575;DHT22;67165;50.256;10.978;2024-03-06T14:31:39;10.50;98.00
26575;DHT22;67165;50.256;10.978;2024-03-06T14:34:05;10.50;98.00
26575;DHT22;67165;50.256;10.978;2024-03-06T14:36:32;10.60;98.00
26575;DHT22;67165;50.256;10.978;2024-03-06T14:38:58;10.60;98.00
26575;DHT22;67165;50.256;10.978;2024-03-06T14:41:23;10.60;98.00
26575;DHT22;67165;50.256;10.978;2024-03-06T14:43:49;10.50;98.00
26575;DHT22;67165;50.256;10.978;2024-03-06T14:46:15;10.50;98.00
26575;DHT22;67165;50.256;10.978;2024-03-06T14:48:41;10.50;98.00
26575;DHT22;67165;50.256;10.978;2024-03-06T14:51:07;10.50;98.00
26575;DHT22;67165;50.256;10.978;2024-03-06T14:53:33;10.50;98.00
26575;DHT22;67165;50.256;10.978;2024-03-06T14:55:58;10.40;98.00
26575;DHT22;67165;50.256;10.978;2024-03-06T14:58:24;10.40;98.00
26575;DHT22;67165;50.256;10.978;2024-03-06T15:00:50;10.40;98.00
26575;DHT22;67165;50.256;10.978;2024-03-06T15:03:19;10.30;98.00
26575;DHT22;67165;50.256;10.978;2024-03-06T15:05:45;10.40;98.00
26575;DHT22;67165;50.256;10.978;2024-03-06T15:08:11;10.40;98.00
26575;DHT22;67165;50.256;10.978;2024-03-06T15:10:37;10.50;98.00
26575;DHT22;67165;50.256;10.978;2024-03-06T15:13:03;10.50;98.00
26575;DHT22;67165;50.256;10.978;2024-03-06T15:15:29;10.30;98.00
26575;DHT22;67165;50.256;10.978;2024-03-06T15:17:56;10.10;98.00
26575;DHT22;67165;50.256;10.978;2024-03-06T15:20:22;10.10;98.00
26575;DHT22;67165;50.256;10.978;2024-03-06T15:22:48;10.10;98.00
26575;DHT22;67165;50.256;10.978;2024-03-06T15:25:14;10.10;98.00
26575;DHT22;67165;50.256;10.978;2024-03-06T15:27:40;10.10;98.00
26575;DHT22;67165;50.256;10.978;2024-03-06T15:30:07;10.10;98.00
26575;DHT22;67165;50.256;10.978;2024-03-06T15:32:37;10.10;98.00
26575;DHT22;67165;50.256;10.978;2024-03-06T15:35:04;10.00;98.00
26575;DHT22;67165;50.256;10.978;2024-03-06T15:37:30;10.00;98.00
26575;DHT22;67165;50.256;10.978;2024-03-06T15:39:57;10.00;98.00